sensor_id;sensor_type;location;lat;lon;timestamp;pressure;altitude;pressure_sealevel;temperature;humidity
51829;BME280;37881;48.024;8.774;2023-04-21T00:00:49;93453.88;;;2.94;100.00
51829;BME280;37881;48.024;8.774;2023-04-21T00:03:17;93454.66;;;2.95;100.00
51829;BME280;37881;48.024;8.774;2023-04-21T00:05:47;93461.25;;;2.94;100.00
51829;BME280;37881;48.024;8.774;2023-04-21T00:08:14;93461.59;;;2.89;100.00
51829;BME280;37881;48.024;8.774;2023-04-21T00:10:41;93460.31;;;2.72;100.00
51829;BME280;37881;48.024;8.774;2023-04-21T00:13:09;93456.78;;;2.64;100.00
51829;BME280;37881;48.024;8.774;2023-04-21T00:15:36;93453.25;;;2.56;100.00
51829;BME280;37881;48.024;8.774;2023-04-21T00:18:03;93448.00;;;2.30;100.00
51829;BME280;37881;48.024;8.774;2023-04-21T00:20:30;93441.81;;;2.33;100.00
51829;BME280;37881;48.024;8.774;2023-04-21T00:22:57;93442.72;;;2.48;100.00
51829;BME280;37881;48.024;8.774;2023-04-21T00:25:24;93440.25;;;2.28;100.00
51829;BME280;37881;48.024;8.774;2023-04-21T00:27:51;93432.63;;;2.45;100.00
51829;BME280;37881;48.024;8.774;2023-04-21T00:30:18;93437.81;;;2.64;100.00
51829;BME280;37881;48.024;8.774;2023-04-21T00:32:45;93426.69;;;2.80;100.00
51829;BME280;37881;48.024;8.774;2023-04-21T00:35:12;93432.50;;;2.82;100.00
51829;BME280;37881;48.024;8.774;2023-04-21T00:37:38;93446.13;;;2.93;100.00
51829;BME280;37881;48.024;8.774;2023-04-21T00:40:07;93440.69;;;2.93;100.00
51829;BME280;37881;48.024;8.774;2023-04-21T00:42:34;93431.00;;;2.88;100.00
51829;BME280;37881;48.024;8.774;2023-04-21T00:45:04;93427.16;;;2.93;100.00
51829;BME280;37881;48.024;8.774;2023-04-21T00:47:31;93421.38;;;2.98;100.00
51829;BME280;37881;48.024;8.774;2023-04-21T00:49:58;93430.69;;;3.00;100.00
51829;BME280;37881;48.024;8.774;2023-04-21T00:52:25;93427.47;;;2.80;100.00
51829;BME280;37881;48.024;8.774;2023-04-21T00:54:52;93431.44;;;2.94;100.00
51829;BME280;37881;48.024;8.774;2023-04-21T00:57:19;93429.91;;;3.00;100.00
51829;BME280;37881;48.024;8.774;2023-04-21T00:59:46;93433.38;;;3.00;100.00
51829;BME280;37881;48.024;8.774;2023-04-21T01:02:15;93437.59;;;2.91;100.00
51829;BME280;37881;48.024;8.774;2023-04-21T01:04:43;93425.22;;;2.93;100.00
51829;BME280;37881;48.024;8.774;2023-04-21T01:07:11;93424.84;;;2.95;100.00
51829;BME280;37881;48.024;8.774;2023-04-21T01:09:38;93421.69;;;2.86;100.00
51829;BME280;37881;48.024;8.774;2023-04-21T01:12:07;93414.59;;;2.67;100.00
51829;BME280;37881;48.024;8.774;2023-04-21T01:14:35;93419.63;;;2.65;100.00
51829;BME280;37881;48.024;8.774;2023-04-21T01:17:02;93415.38;;;2.64;100.00
51829;BME280;37881;48.024;8.774;2023-04-21T01:19:36;93413.78;;;2.59;100.00
51829;BME280;37881;48.024;8.774;2023-04-21T01:22:10;93418.38;;;2.55;100.00
51829;BME280;37881;48.024;8.774;2023-04-21T01:24:43;93420.69;;;2.53;100.00
51829;BME280;37881;48.024;8.774;2023-04-21T01:27:12;93418.00;;;2.53;100.00
51829;BME280;37881;48.024;8.774;2023-04-21T01:29:40;93424.91;;;2.47;100.00
51829;BME280;37881;48.024;8.774;2023-04-21T01:32:11;93427.59;;;2.43;100.00
51829;BME280;37881;48.024;8.774;2023-04-21T01:34:40;93427.16;;;2.34;100.00
51829;BME280;37881;48.024;8.774;2023-04-21T01:37:08;93424.47;;;2.37;100.00
51829;BME280;37881;48.024;8.774;2023-04-21T01:39:42;93424.91;;;2.47;100.00
51829;BME280;37881;48.024;8.774;2023-04-21T01:42:10;93423.41;;;2.53;100.00
51829;BME280;37881;48.024;8.774;2023-04-21T01:44:37;93431.19;;;2.58;100.00
51829;BME280;37881;48.024;8.774;2023-04-21T01:47:05;93440.06;;;2.55;100.00
51829;BME280;37881;48.024;8.774;2023-04-21T01:49:32;93425.78;;;2.58;100.00
51829;BME280;37881;48.024;8.774;2023-04-21T01:51:59;93424.56;;;2.52;100.00
51829;BME280;37881;48.024;8.774;2023-04-21T01:54:26;93428.00;;;2.45;100.00
51829;BME280;37881;48.024;8.774;2023-04-21T01:56:52;93433.50;;;2.56;100.00
51829;BME280;37881;48.024;8.774;2023-04-21T01:59:19;93436.19;;;2.52;100.00
51829;BME280;37881;48.024;8.774;2023-04-21T02:01:46;93443.13;;;2.50;100.00
51829;BME280;37881;48.024;8.774;2023-04-21T02:04:13;93443.09;;;2.46;100.00
51829;BME280;37881;48.024;8.774;2023-04-21T02:06:40;93434.13;;;2.38;100.00
51829;BME280;37881;48.024;8.774;2023-04-21T02:09:06;93442.22;;;2.35;100.00
51829;BME280;37881;48.024;8.774;2023-04-21T02:11:33;93431.44;;;2.38;100.00
51829;BME280;37881;48.024;8.774;2023-04-21T02:14:00;93448.84;;;2.37;100.00
51829;BME280;37881;48.024;8.774;2023-04-21T02:16:26;93444.59;;;2.40;100.00
51829;BME280;37881;48.024;8.774;2023-04-21T02:18:55;93439.13;;;2.33;100.00
51829;BME280;37881;48.024;8.774;2023-04-21T02:21:31;93443.44;;;2.37;100.00
51829;BME280;37881;48.024;8.774;2023-04-21T02:23:58;93440.34;;;2.43;100.00
51829;BME280;37881;48.024;8.774;2023-04-21T02:26:25;93433.84;;;2.51;100.00
51829;BME280;37881;48.024;8.774;2023-04-21T02:28:51;93434.69;;;2.58;100.00
51829;BME280;37881;48.024;8.774;2023-04-21T02:31:18;93439.59;;;2.42;100.00
51829;BME280;37881;48.024;8.774;2023-04-21T02:33:45;93430.66;;;2.38;100.00
51829;BME280;37881;48.024;8.774;2023-04-21T02:36:12;93431.84;;;2.40;100.00
51829;BME280;37881;48.024;8.774;2023-04-21T02:38:38;93420.56;;;2.35;100.00
51829;BME280;37881;48.024;8.774;2023-04-21T02:41:05;93431.38;;;2.31;100.00
51829;BME280;37881;48.024;8.774;2023-04-21T02:43:32;93425.94;;;2.28;100.00
51829;BME280;37881;48.024;8.774;2023-04-21T02:45:58;93431.66;;;2.19;100.00
51829;BME280;37881;48.024;8.774;2023-04-21T02:48:25;93423.19;;;2.24;100.00
51829;BME280;37881;48.024;8.774;2023-04-21T02:50:52;93420.09;;;2.22;100.00
51829;BME280;37881;48.024;8.774;2023-04-21T02:53:19;93416.16;;;2.16;100.00
51829;BME280;37881;48.024;8.774;2023-04-21T02:55:46;93420.06;;;2.18;100.00
51829;BME280;37881;48.024;8.774;2023-04-21T02:58:13;93428.56;;;2.20;100.00
51829;BME280;37881;48.024;8.774;2023-04-21T03:00:40;93422.41;;;2.20;100.00
51829;BME280;37881;48.024;8.774;2023-04-21T03:03:07;93427.44;;;2.22;100.00
51829;BME280;37881;48.024;8.774;2023-04-21T03:05:34;93436.69;;;2.20;100.00
51829;BME280;37881;48.024;8.774;2023-04-21T03:08:01;93429.19;;;2.03;100.00
51829;BME280;37881;48.024;8.774;2023-04-21T03:10:27;93437.44;;;1.76;100.00
51829;BME280;37881;48.024;8.774;2023-04-21T03:12:54;93429.47;;;1.87;100.00
51829;BME280;37881;48.024;8.774;2023-04-21T03:15:21;93430.91;;;1.81;100.00
51829;BME280;37881;48.024;8.774;2023-04-21T03:17:49;93427.97;;;1.93;100.00
51829;BME280;37881;48.024;8.774;2023-04-21T03:20:16;93440.28;;;1.91;100.00
51829;BME280;37881;48.024;8.774;2023-04-21T03:22:43;93430.34;;;2.02;100.00
51829;BME280;37881;48.024;8.774;2023-04-21T03:25:10;93417.28;;;2.08;100.00
51829;BME280;37881;48.024;8.774;2023-04-21T03:27:37;93423.09;;;2.10;100.00
51829;BME280;37881;48.024;8.774;2023-04-21T03:30:05;93414.19;;;2.13;100.00
51829;BME280;37881;48.024;8.774;2023-04-21T03:32:32;93419.56;;;2.09;100.00
51829;BME280;37881;48.024;8.774;2023-04-21T03:34:59;93418.38;;;2.03;100.00
51829;BME280;37881;48.024;8.774;2023-04-21T03:37:25;93421.47;;;2.05;100.00
51829;BME280;37881;48.024;8.774;2023-04-21T03:39:52;93426.53;;;2.07;100.00
51829;BME280;37881;48.024;8.774;2023-04-21T03:42:19;93424.63;;;2.11;100.00
51829;BME280;37881;48.024;8.774;2023-04-21T03:44:46;93423.78;;;2.03;100.00
51829;BME280;37881;48.024;8.774;2023-04-21T03:47:12;93424.44;;;1.89;100.00
51829;BME280;37881;48.024;8.774;2023-04-21T03:49:39;93419.78;;;1.86;100.00
51829;BME280;37881;48.024;8.774;2023-04-21T03:52:05;93421.38;;;1.94;100.00
51829;BME280;37881;48.024;8.774;2023-04-21T03:54:32;93420.59;;;1.90;100.00
51829;BME280;37881;48.024;8.774;2023-04-21T03:56:59;93422.91;;;1.92;100.00
51829;BME280;37881;48.024;8.774;2023-04-21T03:59:25;93418.75;;;2.02;100.00
51829;BME280;37881;48.024;8.774;2023-04-21T04:01:52;93419.91;;;2.00;100.00
51829;BME280;37881;48.024;8.774;2023-04-21T04:04:19;93429.78;;;1.82;100.00
51829;BME280;37881;48.024;8.774;2023-04-21T04:06:46;93423.59;;;1.82;100.00
51829;BME280;37881;48.024;8.774;2023-04-21T04:09:12;93420.91;;;1.82;100.00
51829;BME280;37881;48.024;8.774;2023-04-21T04:11:39;93424.00;;;1.84;100.00
51829;BME280;37881;48.024;8.774;2023-04-21T04:14:05;93423.38;;;1.97;100.00
51829;BME280;37881;48.024;8.774;2023-04-21T04:16:33;93427.56;;;1.95;100.00
51829;BME280;37881;48.024;8.774;2023-04-21T04:19:01;93421.84;;;2.00;100.00
51829;BME280;37881;48.024;8.774;2023-04-21T04:21:28;93418.34;;;1.99;100.00
51829;BME280;37881;48.024;8.774;2023-04-21T04:23:54;93424.56;;;2.04;100.00
51829;BME280;37881;48.024;8.774;2023-04-21T04:26:22;93427.69;;;2.06;100.00
51829;BME280;37881;48.024;8.774;2023-04-21T04:28:51;93423.44;;;2.08;100.00
51829;BME280;37881;48.024;8.774;2023-04-21T04:31:18;93413.84;;;2.14;100.00
51829;BME280;37881;48.024;8.774;2023-04-21T04:33:45;93416.56;;;2.18;100.00
51829;BME280;37881;48.024;8.774;2023-04-21T04:36:12;93414.97;;;2.10;100.00
51829;BME280;37881;48.024;8.774;2023-04-21T04:38:39;93414.75;;;1.88;100.00
51829;BME280;37881;48.024;8.774;2023-04-21T04:41:07;93413.47;;;1.75;100.00
51829;BME280;37881;48.024;8.774;2023-04-21T04:43:34;93409.13;;;1.63;100.00
51829;BME280;37881;48.024;8.774;2023-04-21T04:46:07;93414.13;;;1.65;100.00
51829;BME280;37881;48.024;8.774;2023-04-21T04:48:38;93410.75;;;1.75;100.00
51829;BME280;37881;48.024;8.774;2023-04-21T04:51:05;93412.78;;;1.82;100.00
51829;BME280;37881;48.024;8.774;2023-04-21T04:53:32;93407.78;;;1.84;100.00
51829;BME280;37881;48.024;8.774;2023-04-21T04:55:58;93407.81;;;1.87;100.00
51829;BME280;37881;48.024;8.774;2023-04-21T04:58:25;93412.53;;;1.97;100.00
51829;BME280;37881;48.024;8.774;2023-04-21T05:00:52;93408.63;;;1.95;100.00
51829;BME280;37881;48.024;8.774;2023-04-21T05:03:19;93412.41;;;1.87;100.00
51829;BME280;37881;48.024;8.774;2023-04-21T05:05:46;93406.28;;;1.90;100.00
51829;BME280;37881;48.024;8.774;2023-04-21T05:08:13;93405.81;;;1.80;100.00
51829;BME280;37881;48.024;8.774;2023-04-21T05:10:43;93411.31;;;1.91;100.00
51829;BME280;37881;48.024;8.774;2023-04-21T05:13:09;93408.31;;;2.00;100.00
51829;BME280;37881;48.024;8.774;2023-04-21T05:15:37;93405.38;;;2.19;100.00
51829;BME280;37881;48.024;8.774;2023-04-21T05:18:04;93405.13;;;1.91;100.00
51829;BME280;37881;48.024;8.774;2023-04-21T05:20:31;93405.72;;;2.14;100.00
51829;BME280;37881;48.024;8.774;2023-04-21T05:22:57;93411.19;;;2.25;100.00
51829;BME280;37881;48.024;8.774;2023-04-21T05:25:24;93404.72;;;2.37;100.00
51829;BME280;37881;48.024;8.774;2023-04-21T05:27:51;93406.59;;;2.29;100.00
51829;BME280;37881;48.024;8.774;2023-04-21T05:30:18;93412.31;;;2.17;100.00
51829;BME280;37881;48.024;8.774;2023-04-21T05:32:45;93409.88;;;2.05;100.00
51829;BME280;37881;48.024;8.774;2023-04-21T05:35:12;93408.94;;;2.31;100.00
51829;BME280;37881;48.024;8.774;2023-04-21T05:37:38;93415.00;;;2.69;100.00
51829;BME280;37881;48.024;8.774;2023-04-21T05:40:05;93415.59;;;3.07;100.00
51829;BME280;37881;48.024;8.774;2023-04-21T05:42:32;93414.94;;;3.35;100.00
51829;BME280;37881;48.024;8.774;2023-04-21T05:44:59;93413.13;;;3.71;100.00
51829;BME280;37881;48.024;8.774;2023-04-21T05:47:26;93412.66;;;3.48;100.00
51829;BME280;37881;48.024;8.774;2023-04-21T05:49:52;93408.16;;;4.06;100.00
51829;BME280;37881;48.024;8.774;2023-04-21T05:52:19;93400.66;;;3.49;100.00
51829;BME280;37881;48.024;8.774;2023-04-21T05:54:49;93411.34;;;3.09;100.00
51829;BME280;37881;48.024;8.774;2023-04-21T05:57:15;93411.97;;;3.69;100.00
51829;BME280;37881;48.024;8.774;2023-04-21T05:59:43;93415.63;;;3.10;100.00
51829;BME280;37881;48.024;8.774;2023-04-21T06:02:10;93408.41;;;3.47;100.00
51829;BME280;37881;48.024;8.774;2023-04-21T06:04:37;93412.81;;;4.12;100.00
51829;BME280;37881;48.024;8.774;2023-04-21T06:07:07;93403.47;;;3.95;100.00
51829;BME280;37881;48.024;8.774;2023-04-21T06:09:35;93404.66;;;4.12;100.00
51829;BME280;37881;48.024;8.774;2023-04-21T06:12:02;93407.78;;;4.47;100.00
51829;BME280;37881;48.024;8.774;2023-04-21T06:14:29;93396.84;;;4.93;100.00
51829;BME280;37881;48.024;8.774;2023-04-21T06:16:56;93392.56;;;5.03;100.00
51829;BME280;37881;48.024;8.774;2023-04-21T06:19:22;93405.84;;;5.78;100.00
51829;BME280;37881;48.024;8.774;2023-04-21T06:21:49;93411.66;;;5.80;100.00
51829;BME280;37881;48.024;8.774;2023-04-21T06:24:16;93406.50;;;5.09;100.00
51829;BME280;37881;48.024;8.774;2023-04-21T06:26:51;93405.69;;;6.07;100.00
51829;BME280;37881;48.024;8.774;2023-04-21T06:29:18;93405.84;;;5.78;100.00
51829;BME280;37881;48.024;8.774;2023-04-21T06:31:46;93401.84;;;6.53;100.00
51829;BME280;37881;48.024;8.774;2023-04-21T06:34:13;93403.81;;;6.00;100.00
51829;BME280;37881;48.024;8.774;2023-04-21T06:36:39;93403.78;;;6.56;100.00
51829;BME280;37881;48.024;8.774;2023-04-21T06:39:06;93400.59;;;6.65;100.00
51829;BME280;37881;48.024;8.774;2023-04-21T06:41:33;93406.19;;;7.30;100.00
51829;BME280;37881;48.024;8.774;2023-04-21T06:43:59;93407.88;;;7.86;100.00
51829;BME280;37881;48.024;8.774;2023-04-21T06:46:26;93395.00;;;9.11;100.00
51829;BME280;37881;48.024;8.774;2023-04-21T06:48:53;93404.78;;;8.65;100.00
51829;BME280;37881;48.024;8.774;2023-04-21T06:51:19;93408.16;;;7.95;100.00
51829;BME280;37881;48.024;8.774;2023-04-21T06:53:46;93389.44;;;8.95;100.00
51829;BME280;37881;48.024;8.774;2023-04-21T06:56:13;93390.22;;;9.95;100.00
51829;BME280;37881;48.024;8.774;2023-04-21T06:58:42;93392.59;;;8.19;100.00
51829;BME280;37881;48.024;8.774;2023-04-21T07:01:08;93390.13;;;9.23;100.00
51829;BME280;37881;48.024;8.774;2023-04-21T07:03:35;93389.56;;;8.88;100.00
51829;BME280;37881;48.024;8.774;2023-04-21T07:06:02;93390.97;;;9.59;100.00
51829;BME280;37881;48.024;8.774;2023-04-21T07:08:29;93381.72;;;8.66;100.00
51829;BME280;37881;48.024;8.774;2023-04-21T07:10:56;93385.78;;;9.45;100.00
51829;BME280;37881;48.024;8.774;2023-04-21T07:13:22;93376.50;;;11.14;100.00
51829;BME280;37881;48.024;8.774;2023-04-21T07:15:49;93372.63;;;14.74;77.39
51829;BME280;37881;48.024;8.774;2023-04-21T07:18:16;93374.75;;;15.48;68.09
51829;BME280;37881;48.024;8.774;2023-04-21T07:20:43;93376.22;;;12.86;81.27
51829;BME280;37881;48.024;8.774;2023-04-21T07:23:10;93359.78;;;16.19;64.75
51829;BME280;37881;48.024;8.774;2023-04-21T07:25:37;93357.34;;;18.88;53.80
51829;BME280;37881;48.024;8.774;2023-04-21T07:28:03;93356.81;;;18.25;53.03
51829;BME280;37881;48.024;8.774;2023-04-21T07:30:30;93355.03;;;18.87;49.20
51829;BME280;37881;48.024;8.774;2023-04-21T07:32:57;93361.72;;;19.30;47.68
51829;BME280;37881;48.024;8.774;2023-04-21T07:35:24;93358.91;;;18.45;49.41
51829;BME280;37881;48.024;8.774;2023-04-21T07:37:51;93351.69;;;20.06;45.72
51829;BME280;37881;48.024;8.774;2023-04-21T07:40:17;93349.88;;;20.55;43.78
51829;BME280;37881;48.024;8.774;2023-04-21T07:42:44;93341.81;;;21.38;42.77
51829;BME280;37881;48.024;8.774;2023-04-21T07:45:11;93351.88;;;15.66;53.61
51829;BME280;37881;48.024;8.774;2023-04-21T07:47:38;93349.91;;;16.36;53.79
51829;BME280;37881;48.024;8.774;2023-04-21T07:50:05;93344.56;;;20.25;47.03
51829;BME280;37881;48.024;8.774;2023-04-21T07:52:32;93343.44;;;22.83;41.46
51829;BME280;37881;48.024;8.774;2023-04-21T07:54:59;93340.59;;;21.44;42.11
51829;BME280;37881;48.024;8.774;2023-04-21T07:57:26;93334.53;;;22.96;38.34
51829;BME280;37881;48.024;8.774;2023-04-21T07:59:52;93340.75;;;24.23;36.14
51829;BME280;37881;48.024;8.774;2023-04-21T08:02:19;93335.94;;;24.59;35.54
51829;BME280;37881;48.024;8.774;2023-04-21T08:04:46;93341.44;;;23.87;36.21
51829;BME280;37881;48.024;8.774;2023-04-21T08:07:13;93333.81;;;25.01;34.05
51829;BME280;37881;48.024;8.774;2023-04-21T08:09:41;93340.72;;;25.74;33.80
51829;BME280;37881;48.024;8.774;2023-04-21T08:12:08;93343.06;;;26.33;32.71
51829;BME280;37881;48.024;8.774;2023-04-21T08:14:34;93340.69;;;26.88;31.47
51829;BME280;37881;48.024;8.774;2023-04-21T08:17:01;93349.09;;;23.87;35.06
51829;BME280;37881;48.024;8.774;2023-04-21T08:19:28;93344.59;;;24.61;34.83
51829;BME280;37881;48.024;8.774;2023-04-21T08:21:55;93337.38;;;26.00;32.65
51829;BME280;37881;48.024;8.774;2023-04-21T08:24:22;93337.31;;;25.81;31.51
51829;BME280;37881;48.024;8.774;2023-04-21T08:26:49;93331.06;;;25.94;32.75
51829;BME280;37881;48.024;8.774;2023-04-21T08:29:16;93322.81;;;26.53;30.93
51829;BME280;37881;48.024;8.774;2023-04-21T08:31:43;93314.72;;;27.27;29.90
51829;BME280;37881;48.024;8.774;2023-04-21T08:34:09;93321.66;;;28.96;27.93
51829;BME280;37881;48.024;8.774;2023-04-21T08:36:36;93313.84;;;29.52;26.66
51829;BME280;37881;48.024;8.774;2023-04-21T08:39:03;93318.78;;;28.88;27.29
51829;BME280;37881;48.024;8.774;2023-04-21T08:41:30;93310.22;;;29.44;25.93
51829;BME280;37881;48.024;8.774;2023-04-21T08:43:57;93314.13;;;28.22;27.00
51829;BME280;37881;48.024;8.774;2023-04-21T08:46:24;93313.09;;;27.72;27.02
51829;BME280;37881;48.024;8.774;2023-04-21T08:48:53;93323.16;;;21.61;35.32
51829;BME280;37881;48.024;8.774;2023-04-21T08:51:22;93322.94;;;21.15;35.97
51829;BME280;37881;48.024;8.774;2023-04-21T08:53:49;93314.38;;;21.30;37.13
51829;BME280;37881;48.024;8.774;2023-04-21T08:56:16;93314.59;;;19.88;39.47
51829;BME280;37881;48.024;8.774;2023-04-21T08:58:42;93315.63;;;19.70;40.34
51829;BME280;37881;48.024;8.774;2023-04-21T09:01:09;93316.31;;;18.83;42.66
51829;BME280;37881;48.024;8.774;2023-04-21T09:03:37;93318.66;;;19.93;42.34
51829;BME280;37881;48.024;8.774;2023-04-21T09:06:06;93312.94;;;20.02;41.49
51829;BME280;37881;48.024;8.774;2023-04-21T09:08:41;93331.81;;;20.45;40.51
51829;BME280;37881;48.024;8.774;2023-04-21T09:11:12;93334.78;;;19.22;43.02
51829;BME280;37881;48.024;8.774;2023-04-21T09:13:41;93337.94;;;18.44;45.29
51829;BME280;37881;48.024;8.774;2023-04-21T09:16:17;93326.38;;;18.81;45.87
51829;BME280;37881;48.024;8.774;2023-04-21T09:18:44;93323.97;;;23.59;37.82
51829;BME280;37881;48.024;8.774;2023-04-21T09:21:13;93334.47;;;23.36;36.93
51829;BME280;37881;48.024;8.774;2023-04-21T09:23:45;93318.19;;;21.87;38.06
51829;BME280;37881;48.024;8.774;2023-04-21T09:26:13;93326.41;;;22.98;37.07
51829;BME280;37881;48.024;8.774;2023-04-21T09:28:42;93321.81;;;23.87;35.41
51829;BME280;37881;48.024;8.774;2023-04-21T09:31:13;93317.66;;;25.07;33.95
51829;BME280;37881;48.024;8.774;2023-04-21T09:36:26;93331.63;;;20.22;39.61
51829;BME280;37881;48.024;8.774;2023-04-21T09:41:40;93328.78;;;17.69;44.48
51829;BME280;37881;48.024;8.774;2023-04-21T09:44:08;93331.28;;;17.67;46.62
51829;BME280;37881;48.024;8.774;2023-04-21T09:46:35;93331.22;;;19.42;42.21
51829;BME280;37881;48.024;8.774;2023-04-21T09:49:03;93320.03;;;19.56;43.44
51829;BME280;37881;48.024;8.774;2023-04-21T09:51:30;93317.53;;;18.32;48.11
51829;BME280;37881;48.024;8.774;2023-04-21T09:54:19;93317.72;;;20.91;40.09
51829;BME280;37881;48.024;8.774;2023-04-21T09:56:52;93330.13;;;20.85;40.58
51829;BME280;37881;48.024;8.774;2023-04-21T09:59:24;93328.44;;;22.92;37.54
51829;BME280;37881;48.024;8.774;2023-04-21T10:01:52;93336.34;;;19.69;40.35
51829;BME280;37881;48.024;8.774;2023-04-21T10:04:20;93320.84;;;19.83;41.23
51829;BME280;37881;48.024;8.774;2023-04-21T10:06:50;93312.84;;;20.49;41.49
51829;BME280;37881;48.024;8.774;2023-04-21T10:09:20;93311.47;;;21.08;39.10
51829;BME280;37881;48.024;8.774;2023-04-21T10:11:48;93317.94;;;21.31;38.66
51829;BME280;37881;48.024;8.774;2023-04-21T10:14:15;93314.75;;;21.01;40.21
51829;BME280;37881;48.024;8.774;2023-04-21T10:16:42;93316.50;;;22.46;37.09
51829;BME280;37881;48.024;8.774;2023-04-21T10:19:25;93322.81;;;18.00;44.72
51829;BME280;37881;48.024;8.774;2023-04-21T10:21:56;93313.88;;;21.98;38.73
51829;BME280;37881;48.024;8.774;2023-04-21T10:24:29;93321.03;;;20.32;39.59
51829;BME280;37881;48.024;8.774;2023-04-21T10:26:57;93316.00;;;19.16;43.58
51829;BME280;37881;48.024;8.774;2023-04-21T10:29:28;93311.22;;;21.54;40.04
51829;BME280;37881;48.024;8.774;2023-04-21T10:32:30;93303.00;;;23.12;37.50
51829;BME280;37881;48.024;8.774;2023-04-21T10:34:57;93305.41;;;21.09;39.13
51829;BME280;37881;48.024;8.774;2023-04-21T10:37:23;93306.25;;;20.84;40.72
51829;BME280;37881;48.024;8.774;2023-04-21T10:39:52;93296.97;;;21.47;41.25
51829;BME280;37881;48.024;8.774;2023-04-21T10:42:23;93296.84;;;21.24;40.11
51829;BME280;37881;48.024;8.774;2023-04-21T10:47:44;93293.03;;;16.17;50.79
51829;BME280;37881;48.024;8.774;2023-04-21T10:50:17;93280.41;;;19.67;43.39
51829;BME280;37881;48.024;8.774;2023-04-21T10:53:07;93285.56;;;21.02;40.81
51829;BME280;37881;48.024;8.774;2023-04-21T10:55:34;93296.19;;;18.73;45.74
51829;BME280;37881;48.024;8.774;2023-04-21T10:58:02;93287.53;;;22.55;39.01
51829;BME280;37881;48.024;8.774;2023-04-21T11:00:30;93283.47;;;20.85;39.33
51829;BME280;37881;48.024;8.774;2023-04-21T11:03:02;93296.75;;;20.32;41.28
51829;BME280;37881;48.024;8.774;2023-04-21T11:05:31;93295.50;;;18.93;46.24
51829;BME280;37881;48.024;8.774;2023-04-21T11:08:09;93277.19;;;18.36;46.63
51829;BME280;37881;48.024;8.774;2023-04-21T11:10:55;93284.97;;;19.03;45.67
51829;BME280;37881;48.024;8.774;2023-04-21T11:13:24;93281.00;;;17.35;49.32
51829;BME280;37881;48.024;8.774;2023-04-21T11:15:55;93282.09;;;16.32;53.91
51829;BME280;37881;48.024;8.774;2023-04-21T11:18:42;93270.09;;;15.65;61.59
51829;BME280;37881;48.024;8.774;2023-04-21T11:21:14;93277.47;;;15.77;62.38
51829;BME280;37881;48.024;8.774;2023-04-21T11:23:48;93279.13;;;16.35;60.07
51829;BME280;37881;48.024;8.774;2023-04-21T11:26:16;93286.84;;;16.31;60.67
51829;BME280;37881;48.024;8.774;2023-04-21T11:28:46;93275.03;;;16.22;60.46
51829;BME280;37881;48.024;8.774;2023-04-21T11:31:15;93279.56;;;16.10;61.55
51829;BME280;37881;48.024;8.774;2023-04-21T11:33:41;93268.50;;;16.01;60.68
51829;BME280;37881;48.024;8.774;2023-04-21T11:36:08;93270.00;;;15.04;69.13
51829;BME280;37881;48.024;8.774;2023-04-21T11:38:41;93262.44;;;15.60;65.51
51829;BME280;37881;48.024;8.774;2023-04-21T11:41:08;93266.78;;;15.05;69.25
51829;BME280;37881;48.024;8.774;2023-04-21T11:43:37;93259.41;;;15.30;71.60
51829;BME280;37881;48.024;8.774;2023-04-21T11:46:23;93257.25;;;15.06;71.33
51829;BME280;37881;48.024;8.774;2023-04-21T11:49:07;93260.28;;;15.64;70.27
51829;BME280;37881;48.024;8.774;2023-04-21T11:51:40;93267.06;;;15.44;74.58
51829;BME280;37881;48.024;8.774;2023-04-21T11:54:12;93268.56;;;16.25;67.61
51829;BME280;37881;48.024;8.774;2023-04-21T11:56:41;93260.63;;;15.38;70.42
51829;BME280;37881;48.024;8.774;2023-04-21T11:59:13;93267.41;;;15.28;75.28
51829;BME280;37881;48.024;8.774;2023-04-21T12:01:48;93255.19;;;15.90;73.93
51829;BME280;37881;48.024;8.774;2023-04-21T12:04:17;93260.44;;;15.60;75.42
51829;BME280;37881;48.024;8.774;2023-04-21T12:06:45;93267.97;;;15.60;73.25
51829;BME280;37881;48.024;8.774;2023-04-21T12:09:17;93271.19;;;15.76;77.91
51829;BME280;37881;48.024;8.774;2023-04-21T12:11:47;93271.41;;;16.40;69.06
51829;BME280;37881;48.024;8.774;2023-04-21T12:14:20;93267.44;;;16.31;69.26
51829;BME280;37881;48.024;8.774;2023-04-21T12:16:48;93259.66;;;16.21;71.02
51829;BME280;37881;48.024;8.774;2023-04-21T12:19:35;93261.06;;;16.49;70.61
51829;BME280;37881;48.024;8.774;2023-04-21T12:22:06;93263.41;;;16.42;69.21
51829;BME280;37881;48.024;8.774;2023-04-21T12:24:34;93261.19;;;16.55;68.72
51829;BME280;37881;48.024;8.774;2023-04-21T12:27:03;93254.88;;;16.21;71.44
51829;BME280;37881;48.024;8.774;2023-04-21T12:29:30;93267.22;;;16.20;72.56
51829;BME280;37881;48.024;8.774;2023-04-21T12:31:57;93273.16;;;16.61;67.48
51829;BME280;37881;48.024;8.774;2023-04-21T12:34:23;93280.91;;;17.05;66.68
51829;BME280;37881;48.024;8.774;2023-04-21T12:36:50;93272.84;;;16.59;64.12
51829;BME280;37881;48.024;8.774;2023-04-21T12:39:17;93265.28;;;16.93;65.42
51829;BME280;37881;48.024;8.774;2023-04-21T12:41:45;93270.91;;;16.50;68.19
51829;BME280;37881;48.024;8.774;2023-04-21T12:44:13;93273.16;;;16.28;66.72
51829;BME280;37881;48.024;8.774;2023-04-21T12:46:40;93277.28;;;16.66;66.61
51829;BME280;37881;48.024;8.774;2023-04-21T12:49:07;93265.44;;;17.13;64.17
51829;BME280;37881;48.024;8.774;2023-04-21T12:51:35;93268.03;;;17.71;61.49
51829;BME280;37881;48.024;8.774;2023-04-21T12:54:02;93271.13;;;17.34;58.75
51829;BME280;37881;48.024;8.774;2023-04-21T12:56:29;93275.38;;;16.81;62.52
51829;BME280;37881;48.024;8.774;2023-04-21T12:58:56;93276.00;;;17.00;55.23
51829;BME280;37881;48.024;8.774;2023-04-21T13:01:23;93280.06;;;17.53;53.08
51829;BME280;37881;48.024;8.774;2023-04-21T13:03:50;93278.28;;;17.80;53.18
51829;BME280;37881;48.024;8.774;2023-04-21T13:06:17;93284.22;;;18.02;54.28
51829;BME280;37881;48.024;8.774;2023-04-21T13:08:44;93277.88;;;18.31;52.76
51829;BME280;37881;48.024;8.774;2023-04-21T13:11:11;93278.56;;;17.96;52.69
51829;BME280;37881;48.024;8.774;2023-04-21T13:13:37;93280.59;;;17.96;54.02